sensor_id;sensor_type;location;lat;lon;timestamp;pressure;altitude;pressure_sealevel;temperature;humidity
21236;BME280;10775;42.678;26.324;2022-10-16T00:01:27;99336.19;;;12.64;63.79
21236;BME280;10775;42.678;26.324;2022-10-16T00:03:54;99334.06;;;12.84;65.22
21236;BME280;10775;42.678;26.324;2022-10-16T00:06:26;99328.31;;;12.64;63.96
21236;BME280;10775;42.678;26.324;2022-10-16T00:08:52;99328.47;;;12.56;64.22
21236;BME280;10775;42.678;26.324;2022-10-16T00:11:26;99318.69;;;14.29;61.33
21236;BME280;10775;42.678;26.324;2022-10-16T00:13:55;99331.28;;;12.94;63.05
21236;BME280;10775;42.678;26.324;2022-10-16T00:16:21;99328.59;;;12.47;64.95
21236;BME280;10775;42.678;26.324;2022-10-16T00:18:47;99326.28;;;13.23;63.87
21236;BME280;10775;42.678;26.324;2022-10-16T00:21:20;99330.28;;;14.56;60.20
21236;BME280;10775;42.678;26.324;2022-10-16T00:23:47;99329.53;;;14.53;59.80
21236;BME280;10775;42.678;26.324;2022-10-16T00:26:17;99335.97;;;13.21;62.51
21236;BME280;10775;42.678;26.324;2022-10-16T00:28:50;99332.53;;;13.18;62.66
21236;BME280;10775;42.678;26.324;2022-10-16T00:31:18;99326.78;;;14.20;61.31
21236;BME280;10775;42.678;26.324;2022-10-16T00:33:43;99311.72;;;15.27;57.83
21236;BME280;10775;42.678;26.324;2022-10-16T00:36:12;99325.81;;;15.85;55.74
21236;BME280;10775;42.678;26.324;2022-10-16T00:38:38;99335.69;;;14.50;58.30
21236;BME280;10775;42.678;26.324;2022-10-16T00:41:05;99327.88;;;15.44;56.89
21236;BME280;10775;42.678;26.324;2022-10-16T00:43:41;99338.78;;;13.56;59.33
21236;BME280;10775;42.678;26.324;2022-10-16T00:46:19;99331.94;;;13.48;60.44
21236;BME280;10775;42.678;26.324;2022-10-16T00:48:57;99332.41;;;14.41;59.11
21236;BME280;10775;42.678;26.324;2022-10-16T00:51:31;99337.88;;;13.15;61.00
21236;BME280;10775;42.678;26.324;2022-10-16T00:53:59;99332.78;;;13.51;62.09
21236;BME280;10775;42.678;26.324;2022-10-16T00:56:25;99337.16;;;14.62;59.69
21236;BME280;10775;42.678;26.324;2022-10-16T00:58:51;99336.75;;;13.68;59.00
21236;BME280;10775;42.678;26.324;2022-10-16T01:01:17;99340.06;;;13.78;60.15
21236;BME280;10775;42.678;26.324;2022-10-16T01:03:42;99342.44;;;13.50;61.47
21236;BME280;10775;42.678;26.324;2022-10-16T01:08:57;99333.88;;;13.79;60.34
21236;BME280;10775;42.678;26.324;2022-10-16T01:14:48;99337.66;;;13.27;62.36
21236;BME280;10775;42.678;26.324;2022-10-16T01:20:17;99346.78;;;13.90;59.62
21236;BME280;10775;42.678;26.324;2022-10-16T01:25:25;99356.91;;;12.78;64.36
21236;BME280;10775;42.678;26.324;2022-10-16T01:27:58;99348.47;;;13.09;62.54
21236;BME280;10775;42.678;26.324;2022-10-16T01:30:29;99354.50;;;13.59;61.91
21236;BME280;10775;42.678;26.324;2022-10-16T01:33:49;99353.34;;;14.09;60.18
21236;BME280;10775;42.678;26.324;2022-10-16T01:36:00;99353.88;;;13.47;62.24
21236;BME280;10775;42.678;26.324;2022-10-16T01:38:39;99354.56;;;13.56;60.90
21236;BME280;10775;42.678;26.324;2022-10-16T01:41:15;99368.47;;;13.61;60.28
21236;BME280;10775;42.678;26.324;2022-10-16T01:43:55;99362.19;;;13.68;60.24
21236;BME280;10775;42.678;26.324;2022-10-16T01:46:24;99362.50;;;14.29;59.63
21236;BME280;10775;42.678;26.324;2022-10-16T01:48:50;99369.84;;;14.52;59.24
21236;BME280;10775;42.678;26.324;2022-10-16T01:51:19;99368.94;;;14.17;57.47
21236;BME280;10775;42.678;26.324;2022-10-16T01:53:53;99370.25;;;13.14;62.09
21236;BME280;10775;42.678;26.324;2022-10-16T01:56:22;99370.66;;;13.81;58.21
21236;BME280;10775;42.678;26.324;2022-10-16T01:59:11;99380.88;;;13.08;61.98
21236;BME280;10775;42.678;26.324;2022-10-16T02:01:40;99370.34;;;15.00;58.25
21236;BME280;10775;42.678;26.324;2022-10-16T02:04:15;99366.91;;;15.61;56.20
21236;BME280;10775;42.678;26.324;2022-10-16T02:06:44;99374.81;;;14.66;55.40
21236;BME280;10775;42.678;26.324;2022-10-16T02:09:09;99373.38;;;14.87;57.94
21236;BME280;10775;42.678;26.324;2022-10-16T02:11:35;99368.41;;;13.62;57.21
21236;BME280;10775;42.678;26.324;2022-10-16T02:14:06;99371.69;;;14.84;57.88
21236;BME280;10775;42.678;26.324;2022-10-16T02:16:37;99375.25;;;14.82;57.28
21236;BME280;10775;42.678;26.324;2022-10-16T02:19:03;99373.25;;;14.57;54.17
21236;BME280;10775;42.678;26.324;2022-10-16T02:21:41;99375.59;;;13.95;60.07
21236;BME280;10775;42.678;26.324;2022-10-16T02:24:33;99375.56;;;14.69;56.12
21236;BME280;10775;42.678;26.324;2022-10-16T02:29:38;99376.28;;;13.64;59.13
21236;BME280;10775;42.678;26.324;2022-10-16T02:32:08;99382.16;;;12.87;60.68
21236;BME280;10775;42.678;26.324;2022-10-16T02:34:36;99379.59;;;14.48;58.98
21236;BME280;10775;42.678;26.324;2022-10-16T02:37:07;99386.19;;;14.66;57.58
21236;BME280;10775;42.678;26.324;2022-10-16T02:39:35;99394.03;;;14.30;57.68
21236;BME280;10775;42.678;26.324;2022-10-16T02:42:02;99393.38;;;13.83;55.56
21236;BME280;10775;42.678;26.324;2022-10-16T02:44:28;99402.38;;;14.12;54.77
21236;BME280;10775;42.678;26.324;2022-10-16T02:46:54;99405.78;;;13.75;57.30
21236;BME280;10775;42.678;26.324;2022-10-16T02:49:20;99409.88;;;13.01;58.28
21236;BME280;10775;42.678;26.324;2022-10-16T02:51:46;99405.91;;;12.77;58.37
21236;BME280;10775;42.678;26.324;2022-10-16T02:54:13;99401.13;;;13.88;60.61
21236;BME280;10775;42.678;26.324;2022-10-16T02:56:38;99404.69;;;14.63;57.45
21236;BME280;10775;42.678;26.324;2022-10-16T02:59:04;99405.44;;;15.34;56.12
21236;BME280;10775;42.678;26.324;2022-10-16T03:01:30;99412.78;;;14.17;58.12
21236;BME280;10775;42.678;26.324;2022-10-16T03:03:55;99413.69;;;13.75;57.11
21236;BME280;10775;42.678;26.324;2022-10-16T03:06:21;99419.53;;;12.99;57.33
21236;BME280;10775;42.678;26.324;2022-10-16T03:08:48;99422.94;;;13.53;60.91
21236;BME280;10775;42.678;26.324;2022-10-16T03:11:14;99420.16;;;14.38;55.71
21236;BME280;10775;42.678;26.324;2022-10-16T03:13:39;99418.69;;;15.31;56.23
21236;BME280;10775;42.678;26.324;2022-10-16T03:16:05;99427.81;;;15.19;56.37
21236;BME280;10775;42.678;26.324;2022-10-16T03:18:30;99425.94;;;15.55;55.05
21236;BME280;10775;42.678;26.324;2022-10-16T03:20:56;99427.97;;;15.77;54.64
21236;BME280;10775;42.678;26.324;2022-10-16T03:23:22;99427.53;;;15.92;53.97
21236;BME280;10775;42.678;26.324;2022-10-16T03:25:49;99431.69;;;15.99;53.74
21236;BME280;10775;42.678;26.324;2022-10-16T03:28:14;99425.34;;;16.06;53.26
21236;BME280;10775;42.678;26.324;2022-10-16T03:30:40;99437.84;;;15.05;54.98
21236;BME280;10775;42.678;26.324;2022-10-16T03:33:06;99435.50;;;14.94;55.99
21236;BME280;10775;42.678;26.324;2022-10-16T03:35:32;99432.91;;;15.25;55.45
21236;BME280;10775;42.678;26.324;2022-10-16T03:37:58;99430.63;;;15.44;53.69
21236;BME280;10775;42.678;26.324;2022-10-16T03:40:25;99433.50;;;15.68;54.63
21236;BME280;10775;42.678;26.324;2022-10-16T03:42:50;99432.13;;;15.85;53.75
21236;BME280;10775;42.678;26.324;2022-10-16T03:45:16;99435.09;;;15.75;54.06
21236;BME280;10775;42.678;26.324;2022-10-16T03:47:42;99447.97;;;15.53;54.58
21236;BME280;10775;42.678;26.324;2022-10-16T03:50:08;99452.72;;;15.73;51.90
21236;BME280;10775;42.678;26.324;2022-10-16T03:52:34;99446.44;;;15.77;54.11
21236;BME280;10775;42.678;26.324;2022-10-16T03:54:59;99454.06;;;15.86;53.63
21236;BME280;10775;42.678;26.324;2022-10-16T03:57:25;99453.13;;;15.89;53.69
21236;BME280;10775;42.678;26.324;2022-10-16T03:59:52;99451.41;;;15.88;53.36
21236;BME280;10775;42.678;26.324;2022-10-16T04:02:18;99447.09;;;15.85;53.51
21236;BME280;10775;42.678;26.324;2022-10-16T04:04:44;99449.84;;;15.80;53.54
21236;BME280;10775;42.678;26.324;2022-10-16T04:07:09;99443.78;;;15.77;53.50
21236;BME280;10775;42.678;26.324;2022-10-16T04:09:35;99442.22;;;15.70;53.82
21236;BME280;10775;42.678;26.324;2022-10-16T04:12:01;99447.44;;;15.73;53.75
21236;BME280;10775;42.678;26.324;2022-10-16T04:14:28;99442.28;;;15.66;53.95
21236;BME280;10775;42.678;26.324;2022-10-16T04:16:53;99442.06;;;15.76;53.43
21236;BME280;10775;42.678;26.324;2022-10-16T04:19:20;99449.84;;;15.80;53.57
21236;BME280;10775;42.678;26.324;2022-10-16T04:21:45;99447.25;;;15.79;53.58
21236;BME280;10775;42.678;26.324;2022-10-16T04:24:11;99445.63;;;15.75;53.68
21236;BME280;10775;42.678;26.324;2022-10-16T04:26:37;99443.94;;;15.72;53.61
21236;BME280;10775;42.678;26.324;2022-10-16T04:29:03;99445.03;;;15.63;53.78
21236;BME280;10775;42.678;26.324;2022-10-16T04:31:29;99446.63;;;15.71;53.72
21236;BME280;10775;42.678;26.324;2022-10-16T04:33:54;99451.88;;;15.71;53.42
21236;BME280;10775;42.678;26.324;2022-10-16T04:36:20;99455.56;;;15.63;53.57
21236;BME280;10775;42.678;26.324;2022-10-16T04:38:46;99452.94;;;15.63;53.57
21236;BME280;10775;42.678;26.324;2022-10-16T04:41:12;99455.75;;;15.57;53.80
21236;BME280;10775;42.678;26.324;2022-10-16T04:43:37;99460.75;;;15.66;53.55
21236;BME280;10775;42.678;26.324;2022-10-16T04:46:03;99457.22;;;15.68;53.39
21236;BME280;10775;42.678;26.324;2022-10-16T04:48:30;99459.59;;;15.77;53.18
21236;BME280;10775;42.678;26.324;2022-10-16T04:50:56;99466.44;;;15.84;52.82
21236;BME280;10775;42.678;26.324;2022-10-16T04:53:23;99473.72;;;15.76;53.25
21236;BME280;10775;42.678;26.324;2022-10-16T04:55:50;99469.47;;;15.70;53.14
21236;BME280;10775;42.678;26.324;2022-10-16T04:58:16;99470.25;;;15.74;53.12
21236;BME280;10775;42.678;26.324;2022-10-16T05:00:43;99472.25;;;15.64;53.19
21236;BME280;10775;42.678;26.324;2022-10-16T05:03:13;99482.44;;;15.78;53.18
21236;BME280;10775;42.678;26.324;2022-10-16T05:05:42;99477.81;;;15.86;52.80
21236;BME280;10775;42.678;26.324;2022-10-16T05:08:08;99491.63;;;15.61;53.34
21236;BME280;10775;42.678;26.324;2022-10-16T05:10:35;99495.94;;;15.65;53.01
21236;BME280;10775;42.678;26.324;2022-10-16T05:13:01;99489.69;;;15.70;53.08
21236;BME280;10775;42.678;26.324;2022-10-16T05:15:27;99492.13;;;15.77;52.72
21236;BME280;10775;42.678;26.324;2022-10-16T05:17:56;99490.50;;;15.72;53.05
21236;BME280;10775;42.678;26.324;2022-10-16T05:20:22;99488.81;;;15.69;53.37
21236;BME280;10775;42.678;26.324;2022-10-16T05:22:48;99500.38;;;15.63;53.18
21236;BME280;10775;42.678;26.324;2022-10-16T05:25:14;99493.22;;;15.70;53.07
21236;BME280;10775;42.678;26.324;2022-10-16T05:27:40;99503.69;;;15.72;52.86
21236;BME280;10775;42.678;26.324;2022-10-16T05:30:06;99499.97;;;15.79;52.65
21236;BME280;10775;42.678;26.324;2022-10-16T05:32:34;99498.34;;;15.75;52.92
21236;BME280;10775;42.678;26.324;2022-10-16T05:35:00;99493.75;;;15.81;52.68
21236;BME280;10775;42.678;26.324;2022-10-16T05:37:31;99494.56;;;15.85;52.55
21236;BME280;10775;42.678;26.324;2022-10-16T05:39:57;99503.34;;;15.84;52.65
21236;BME280;10775;42.678;26.324;2022-10-16T05:42:23;99512.34;;;15.77;52.63
21236;BME280;10775;42.678;26.324;2022-10-16T05:44:50;99508.81;;;15.78;52.67
21236;BME280;10775;42.678;26.324;2022-10-16T05:47:17;99515.19;;;15.69;52.82
21236;BME280;10775;42.678;26.324;2022-10-16T05:49:42;99509.69;;;15.77;52.71
21236;BME280;10775;42.678;26.324;2022-10-16T05:52:08;99515.22;;;15.68;52.84
21236;BME280;10775;42.678;26.324;2022-10-16T05:54:34;99513.66;;;15.59;53.12
21236;BME280;10775;42.678;26.324;2022-10-16T05:57:00;99512.59;;;15.66;52.88
21236;BME280;10775;42.678;26.324;2022-10-16T05:59:27;99516.28;;;15.26;53.33
21236;BME280;10775;42.678;26.324;2022-10-16T06:01:53;99522.19;;;15.36;53.55
21236;BME280;10775;42.678;26.324;2022-10-16T06:04:19;99521.16;;;15.41;53.33
21236;BME280;10775;42.678;26.324;2022-10-16T06:06:44;99522.06;;;15.40;53.19
21236;BME280;10775;42.678;26.324;2022-10-16T06:09:11;99527.94;;;15.17;52.14
21236;BME280;10775;42.678;26.324;2022-10-16T06:11:38;99529.00;;;13.90;56.53
21236;BME280;10775;42.678;26.324;2022-10-16T06:14:04;99523.25;;;14.15;57.23
21236;BME280;10775;42.678;26.324;2022-10-16T06:16:35;99521.81;;;14.81;53.64
21236;BME280;10775;42.678;26.324;2022-10-16T06:19:05;99520.97;;;14.79;55.16
21236;BME280;10775;42.678;26.324;2022-10-16T06:21:34;99528.59;;;15.26;54.03
21236;BME280;10775;42.678;26.324;2022-10-16T06:24:01;99525.53;;;15.42;53.57
21236;BME280;10775;42.678;26.324;2022-10-16T06:26:29;99536.31;;;14.99;53.82
21236;BME280;10775;42.678;26.324;2022-10-16T06:28:56;99538.59;;;15.13;54.00
21236;BME280;10775;42.678;26.324;2022-10-16T06:31:22;99540.28;;;15.50;53.36
21236;BME280;10775;42.678;26.324;2022-10-16T06:33:52;99544.94;;;15.04;53.99
21236;BME280;10775;42.678;26.324;2022-10-16T06:36:18;99541.59;;;14.97;54.45
21236;BME280;10775;42.678;26.324;2022-10-16T06:38:45;99547.97;;;14.87;54.68
21236;BME280;10775;42.678;26.324;2022-10-16T06:41:12;99552.56;;;15.51;53.31
21236;BME280;10775;42.678;26.324;2022-10-16T06:43:38;99551.19;;;15.69;52.80
21236;BME280;10775;42.678;26.324;2022-10-16T06:46:05;99560.72;;;15.74;52.53
21236;BME280;10775;42.678;26.324;2022-10-16T06:48:36;99556.72;;;15.92;52.00
21236;BME280;10775;42.678;26.324;2022-10-16T06:53:33;99564.50;;;15.98;51.44
21236;BME280;10775;42.678;26.324;2022-10-16T06:56:13;99567.22;;;15.95;51.63
21236;BME280;10775;42.678;26.324;2022-10-16T06:58:41;99563.75;;;15.93;51.58
21236;BME280;10775;42.678;26.324;2022-10-16T07:01:07;99571.56;;;15.96;51.67
21236;BME280;10775;42.678;26.324;2022-10-16T07:03:36;99572.28;;;16.03;51.30
21236;BME280;10775;42.678;26.324;2022-10-16T07:06:03;99563.66;;;15.96;51.39
21236;BME280;10775;42.678;26.324;2022-10-16T07:08:33;99568.91;;;15.98;51.41
21236;BME280;10775;42.678;26.324;2022-10-16T07:11:04;99564.91;;;16.14;51.03
21236;BME280;10775;42.678;26.324;2022-10-16T07:13:38;99559.50;;;16.48;50.52
21236;BME280;10775;42.678;26.324;2022-10-16T07:16:15;99565.75;;;17.55;47.79
21236;BME280;10775;42.678;26.324;2022-10-16T07:18:42;99571.81;;;18.09;46.71
21236;BME280;10775;42.678;26.324;2022-10-16T07:21:12;99568.00;;;18.41;45.42
21236;BME280;10775;42.678;26.324;2022-10-16T07:23:41;99568.97;;;18.61;45.03
21236;BME280;10775;42.678;26.324;2022-10-16T07:26:08;99568.00;;;18.63;44.51
21236;BME280;10775;42.678;26.324;2022-10-16T07:28:35;99566.19;;;19.09;43.81
21236;BME280;10775;42.678;26.324;2022-10-16T07:31:11;99570.03;;;19.45;42.89
21236;BME280;10775;42.678;26.324;2022-10-16T07:33:41;99572.56;;;19.05;43.02
21236;BME280;10775;42.678;26.324;2022-10-16T07:36:08;99568.53;;;19.17;43.32
21236;BME280;10775;42.678;26.324;2022-10-16T07:38:34;99563.72;;;19.27;43.28
21236;BME280;10775;42.678;26.324;2022-10-16T07:41:02;99564.56;;;19.49;42.68
21236;BME280;10775;42.678;26.324;2022-10-16T07:43:28;99575.16;;;19.49;42.51
21236;BME280;10775;42.678;26.324;2022-10-16T07:45:54;99579.72;;;19.25;43.10
21236;BME280;10775;42.678;26.324;2022-10-16T07:48:23;99576.91;;;19.91;41.71
21236;BME280;10775;42.678;26.324;2022-10-16T07:50:51;99585.34;;;19.81;41.24
21236;BME280;10775;42.678;26.324;2022-10-16T07:53:18;99574.97;;;18.66;38.68
21236;BME280;10775;42.678;26.324;2022-10-16T07:55:44;99573.19;;;18.90;43.28
21236;BME280;10775;42.678;26.324;2022-10-16T07:58:12;99576.06;;;19.70;42.19
21236;BME280;10775;42.678;26.324;2022-10-16T08:00:39;99577.38;;;20.01;41.35
21236;BME280;10775;42.678;26.324;2022-10-16T08:03:04;99572.28;;;19.76;41.52
21236;BME280;10775;42.678;26.324;2022-10-16T08:05:32;99576.00;;;19.29;41.97
21236;BME280;10775;42.678;26.324;2022-10-16T08:07:59;99576.50;;;18.02;44.80
21236;BME280;10775;42.678;26.324;2022-10-16T08:10:27;99566.00;;;17.99;38.88
21236;BME280;10775;42.678;26.324;2022-10-16T08:12:54;99563.59;;;18.17;38.32
21236;BME280;10775;42.678;26.324;2022-10-16T08:15:20;99561.28;;;17.57;38.89
21236;BME280;10775;42.678;26.324;2022-10-16T08:18:04;99564.06;;;17.54;39.41
21236;BME280;10775;42.678;26.324;2022-10-16T08:20:32;99555.63;;;17.68;41.80
21236;BME280;10775;42.678;26.324;2022-10-16T08:22:59;99553.28;;;18.80;43.20
21236;BME280;10775;42.678;26.324;2022-10-16T08:25:25;99559.25;;;18.85;39.98
21236;BME280;10775;42.678;26.324;2022-10-16T08:27:51;99563.88;;;18.33;36.59
21236;BME280;10775;42.678;26.324;2022-10-16T08:30:20;99570.78;;;19.28;42.88
21236;BME280;10775;42.678;26.324;2022-10-16T08:32:48;99565.91;;;19.80;41.73
21236;BME280;10775;42.678;26.324;2022-10-16T08:35:14;99569.41;;;20.01;40.95
21236;BME280;10775;42.678;26.324;2022-10-16T08:37:40;99570.16;;;20.05;40.97
21236;BME280;10775;42.678;26.324;2022-10-16T08:40:17;99569.59;;;19.55;40.36
21236;BME280;10775;42.678;26.324;2022-10-16T08:50:37;99583.03;;;17.92;41.52
21236;BME280;10775;42.678;26.324;2022-10-16T08:53:06;99572.69;;;17.59;38.39
21236;BME280;10775;42.678;26.324;2022-10-16T08:55:41;99576.78;;;17.68;37.46
21236;BME280;10775;42.678;26.324;2022-10-16T08:58:29;99569.84;;;17.91;37.11
21236;BME280;10775;42.678;26.324;2022-10-16T09:01:03;99564.28;;;17.98;38.41
21236;BME280;10775;42.678;26.324;2022-10-16T09:06:46;99567.84;;;18.68;34.95
21236;BME280;10775;42.678;26.324;2022-10-16T09:17:22;99566.19;;;19.09;39.35
21236;BME280;10775;42.678;26.324;2022-10-16T09:25:44;99568.47;;;18.04;37.63
21236;BME280;10775;42.678;26.324;2022-10-16T09:28:11;99577.56;;;17.97;35.36
21236;BME280;10775;42.678;26.324;2022-10-16T09:30:39;99568.38;;;18.07;35.23
21236;BME280;10775;42.678;26.324;2022-10-16T09:33:06;99568.13;;;17.90;35.27
21236;BME280;10775;42.678;26.324;2022-10-16T09:35:37;99569.78;;;18.63;38.85
21236;BME280;10775;42.678;26.324;2022-10-16T09:38:04;99565.44;;;19.07;40.48
21236;BME280;10775;42.678;26.324;2022-10-16T09:40:33;99574.59;;;19.21;41.26
21236;BME280;10775;42.678;26.324;2022-10-16T09:43:23;99570.91;;;19.45;40.28
21236;BME280;10775;42.678;26.324;2022-10-16T09:46:01;99569.31;;;19.41;39.87
21236;BME280;10775;42.678;26.324;2022-10-16T09:48:36;99574.41;;;19.03;34.72
21236;BME280;10775;42.678;26.324;2022-10-16T09:51:05;99575.94;;;19.31;37.90
21236;BME280;10775;42.678;26.324;2022-10-16T09:53:44;99564.66;;;18.13;34.69
21236;BME280;10775;42.678;26.324;2022-10-16T09:56:20;99563.44;;;17.98;38.32
21236;BME280;10775;42.678;26.324;2022-10-16T09:58:53;99561.94;;;18.14;34.98
21236;BME280;10775;42.678;26.324;2022-10-16T10:01:24;99558.78;;;18.97;38.82
21236;BME280;10775;42.678;26.324;2022-10-16T10:03:57;99548.47;;;19.11;33.44
21236;BME280;10775;42.678;26.324;2022-10-16T10:06:45;99559.75;;;19.37;40.23
21236;BME280;10775;42.678;26.324;2022-10-16T10:09:25;99550.75;;;19.21;33.76
21236;BME280;10775;42.678;26.324;2022-10-16T10:11:53;99546.03;;;18.61;33.90
21236;BME280;10775;42.678;26.324;2022-10-16T10:19:53;99541.22;;;18.95;40.04
21236;BME280;10775;42.678;26.324;2022-10-16T10:22:40;99547.50;;;18.46;34.11
21236;BME280;10775;42.678;26.324;2022-10-16T10:28:24;99542.31;;;18.89;33.59
21236;BME280;10775;42.678;26.324;2022-10-16T10:31:03;99534.56;;;18.84;40.41
21236;BME280;10775;42.678;26.324;2022-10-16T10:33:53;99536.91;;;18.92;34.77
21236;BME280;10775;42.678;26.324;2022-10-16T10:38:54;99526.72;;;18.81;32.24
21236;BME280;10775;42.678;26.324;2022-10-16T10:44:23;99517.16;;;18.99;31.74
21236;BME280;10775;42.678;26.324;2022-10-16T10:47:09;99502.38;;;18.94;36.86
21236;BME280;10775;42.678;26.324;2022-10-16T10:50:07;99522.22;;;19.05;33.48
21236;BME280;10775;42.678;26.324;2022-10-16T10:55:36;99504.50;;;18.85;33.15
21236;BME280;10775;42.678;26.324;2022-10-16T10:58:39;99511.50;;;19.08;35.89
21236;BME280;10775;42.678;26.324;2022-10-16T11:01:33;99511.34;;;19.74;34.04
21236;BME280;10775;42.678;26.324;2022-10-16T11:07:49;99496.75;;;19.01;33.26
21236;BME280;10775;42.678;26.324;2022-10-16T11:10:21;99508.75;;;19.73;32.97
21236;BME280;10775;42.678;26.324;2022-10-16T11:12:58;99496.41;;;19.31;33.61
21236;BME280;10775;42.678;26.324;2022-10-16T11:15:29;99507.63;;;18.95;33.37
21236;BME280;10775;42.678;26.324;2022-10-16T11:18:12;99509.28;;;18.98;32.81
21236;BME280;10775;42.678;26.324;2022-10-16T11:20:54;99513.69;;;18.77;35.15
21236;BME280;10775;42.678;26.324;2022-10-16T11:23:40;99523.78;;;18.65;32.05
21236;BME280;10775;42.678;26.324;2022-10-16T11:26:17;99512.53;;;19.04;32.64
21236;BME280;10775;42.678;26.324;2022-10-16T11:28:51;99517.75;;;19.28;31.98
21236;BME280;10775;42.678;26.324;2022-10-16T11:34:06;99517.63;;;19.31;38.65
21236;BME280;10775;42.678;26.324;2022-10-16T11:39:24;99516.69;;;19.52;32.69
21236;BME280;10775;42.678;26.324;2022-10-16T11:42:16;99518.84;;;19.63;31.80
21236;BME280;10775;42.678;26.324;2022-10-16T11:47:42;99519.63;;;20.06;31.21
21236;BME280;10775;42.678;26.324;2022-10-16T11:50:22;99520.47;;;19.26;31.83
21236;BME280;10775;42.678;26.324;2022-10-16T11:55:48;99533.25;;;19.37;33.19
21236;BME280;10775;42.678;26.324;2022-10-16T11:58:26;99528.97;;;18.92;33.16
21236;BME280;10775;42.678;26.324;2022-10-16T12:06:43;99516.38;;;18.97;32.69
21236;BME280;10775;42.678;26.324;2022-10-16T12:09:27;99529.28;;;19.47;38.78
21236;BME280;10775;42.678;26.324;2022-10-16T12:11:58;99530.03;;;18.86;32.89
21236;BME280;10775;42.678;26.324;2022-10-16T12:16:57;99531.09;;;18.82;35.67
21236;BME280;10775;42.678;26.324;2022-10-16T12:19:29;99536.09;;;18.90;32.97
21236;BME280;10775;42.678;26.324;2022-10-16T12:21:58;99526.97;;;18.75;33.88
21236;BME280;10775;42.678;26.324;2022-10-16T12:24:39;99529.63;;;18.75;33.75
21236;BME280;10775;42.678;26.324;2022-10-16T12:27:29;99528.53;;;19.23;33.77
21236;BME280;10775;42.678;26.324;2022-10-16T12:30:01;99528.69;;;19.41;33.43
21236;BME280;10775;42.678;26.324;2022-10-16T12:32:39;99527.75;;;19.21;37.25
21236;BME280;10775;42.678;26.324;2022-10-16T12:35:16;99525.91;;;19.01;34.11
21236;BME280;10775;42.678;26.324;2022-10-16T12:37:44;99530.06;;;19.29;34.19
21236;BME280;10775;42.678;26.324;2022-10-16T12:40:32;99530.47;;;19.61;39.18
21236;BME280;10775;42.678;26.324;2022-10-16T12:42:58;99538.88;;;19.50;32.74
21236;BME280;10775;42.678;26.324;2022-10-16T12:45:28;99535.22;;;19.32;33.49
21236;BME280;10775;42.678;26.324;2022-10-16T12:48:01;99539.88;;;19.27;33.39
21236;BME280;10775;42.678;26.324;2022-10-16T12:50:37;99538.00;;;18.86;33.60
21236;BME280;10775;42.678;26.324;2022-10-16T12:53:17;99542.97;;;18.94;34.61
21236;BME280;10775;42.678;26.324;2022-10-16T12:56:04;99548.34;;;19.35;35.39
21236;BME280;10775;42.678;26.324;2022-10-16T13:04:01;99552.53;;;18.98;33.12
21236;BME280;10775;42.678;26.324;2022-10-16T13:07:02;99547.69;;;18.87;35.21
21236;BME280;10775;42.678;26.324;2022-10-16T13:10:30;99548.81;;;18.82;33.47
21236;BME280;10775;42.678;26.324;2022-10-16T13:32:45;99549.41;;;19.10;34.64
21236;BME280;10775;42.678;26.324;2022-10-16T13:35:31;99551.91;;;19.14;34.42
21236;BME280;10775;42.678;26.324;2022-10-16T13:38:09;99554.50;;;19.15;34.64
21236;BME280;10775;42.678;26.324;2022-10-16T13:40:58;99554.00;;;18.83;38.74
21236;BME280;10775;42.678;26.324;2022-10-16T13:43:40;99559.50;;;19.01;34.05
21236;BME280;10775;42.678;26.324;2022-10-16T13:48:40;99563.53;;;18.65;37.90
21236;BME280;10775;42.678;26.324;2022-10-16T13:51:16;99568.00;;;18.18;34.51
21236;BME280;10775;42.678;26.324;2022-10-16T13:53:43;99573.56;;;18.34;39.88
21236;BME280;10775;42.678;26.324;2022-10-16T13:56:15;99565.06;;;18.25;35.26
21236;BME280;10775;42.678;26.324;2022-10-16T13:58:42;99579.75;;;18.09;35.76
21236;BME280;10775;42.678;26.324;2022-10-16T14:01:24;99573.91;;;18.24;34.88
21236;BME280;10775;42.678;26.324;2022-10-16T14:03:52;99576.09;;;18.37;35.21
21236;BME280;10775;42.678;26.324;2022-10-16T14:06:21;99570.22;;;18.29;34.75
21236;BME280;10775;42.678;26.324;2022-10-16T14:11:25;99571.50;;;18.18;34.61
21236;BME280;10775;42.678;26.324;2022-10-16T14:13:51;99584.84;;;18.15;36.94
21236;BME280;10775;42.678;26.324;2022-10-16T14:16:20;99584.84;;;18.15;37.59
21236;BME280;10775;42.678;26.324;2022-10-16T14:18:59;99588.69;;;18.07;35.10
21236;BME280;10775;42.678;26.324;2022-10-16T14:21:28;99587.25;;;17.98;35.08
21236;BME280;10775;42.678;26.324;2022-10-16T14:23:54;99593.75;;;18.13;34.99
21236;BME280;10775;42.678;26.324;2022-10-16T14:26:24;99597.25;;;18.13;35.07
21236;BME280;10775;42.678;26.324;2022-10-16T14:29:08;99596.31;;;17.91;35.40
21236;BME280;10775;42.678;26.324;2022-10-16T14:31:37;99589.66;;;18.04;36.49
21236;BME280;10775;42.678;26.324;2022-10-16T14:34:05;99594.63;;;17.88;35.70
21236;BME280;10775;42.678;26.324;2022-10-16T14:36:52;99597.63;;;17.77;35.94
21236;BME280;10775;42.678;26.324;2022-10-16T14:39:19;99588.47;;;17.61;36.49
21236;BME280;10775;42.678;26.324;2022-10-16T14:41:49;99604.13;;;17.94;38.74
21236;BME280;10775;42.678;26.324;2022-10-16T14:44:17;99600.78;;;17.89;37.00
21236;BME280;10775;42.678;26.324;2022-10-16T14:46:44;99600.84;;;17.60;38.36
21236;BME280;10775;42.678;26.324;2022-10-16T14:51:37;99612.16;;;17.39;41.77
21236;BME280;10775;42.678;26.324;2022-10-16T14:54:09;99612.75;;;17.21;37.42
21236;BME280;10775;42.678;26.324;2022-10-16T14:56:49;99603.47;;;17.07;37.95
21236;BME280;10775;42.678;26.324;2022-10-16T14:59:24;99609.72;;;17.05;40.21
21236;BME280;10775;42.678;26.324;2022-10-16T15:01:56;99615.81;;;17.07;39.27
21236;BME280;10775;42.678;26.324;2022-10-16T15:04:28;99626.25;;;17.38;44.75